Time;durP1;ratioP1;P1;durP2;ratioP2;P2;SDS_P1;SDS_P2;PMS_P1;PMS_P2;Temp;Humidity;BMP_temperature;BMP_pressure;BME280_temperature;BME280_humidity;BME280_pressure;Samples;Min_cycle;Max_cycle;Signal;HPM_P1;HPM_P2
2022/05/18 00:01:17;;;;;;;12.97;11.67;;;19.70;99.90;;;;;;5066973;28;20462;-67
2022/05/18 00:03:46;;;;;;;12.40;11.50;;;19.60;99.90;;;;;;5082552;28;21289;-67
2022/05/18 00:06:13;;;;;;;12.87;11.60;;;19.60;99.90;;;;;;5082322;28;20482;-67
2022/05/18 00:08:40;;;;;;;12.30;11.50;;;19.60;99.90;;;;;;5080708;28;20798;-67
2022/05/18 00:11:11;;;;;;;15.20;12.43;;;19.50;99.90;;;;;;5079327;28;20470;-66
2022/05/18 00:13:39;;;;;;;12.50;11.40;;;19.50;99.90;;;;;;5076997;28;20485;-66
2022/05/18 00:16:06;;;;;;;12.67;11.50;;;19.50;99.90;;;;;;5075355;28;20467;-67
2022/05/18 00:18:34;;;;;;;16.40;12.30;;;19.40;99.90;;;;;;5082134;28;20474;-67
2022/05/18 00:21:01;;;;;;;13.37;12.00;;;19.40;99.90;;;;;;5081489;28;20459;-67
2022/05/18 00:23:29;;;;;;;13.23;12.13;;;19.30;99.90;;;;;;5078996;28;20450;-67
2022/05/18 00:25:56;;;;;;;12.60;11.73;;;19.30;99.90;;;;;;5077902;28;20454;-67
2022/05/18 00:28:23;;;;;;;12.77;11.87;;;19.30;99.90;;;;;;5077664;28;20463;-67
2022/05/18 00:30:50;;;;;;;13.87;12.37;;;19.20;99.90;;;;;;5076420;28;20473;-67
2022/05/18 00:33:18;;;;;;;13.53;12.20;;;19.20;99.90;;;;;;5081445;28;20534;-67
2022/05/18 00:35:47;;;;;;;12.73;11.73;;;19.20;99.90;;;;;;5077895;28;20497;-67
2022/05/18 00:38:15;;;;;;;14.27;13.00;;;19.20;99.90;;;;;;5080366;28;20458;-67
2022/05/18 00:40:45;;;;;;;13.97;12.87;;;19.10;99.90;;;;;;5074075;28;20459;-67
2022/05/18 00:43:18;;;;;;;13.37;12.40;;;19.10;99.90;;;;;;5078443;28;20455;-67
2022/05/18 00:45:45;;;;;;;12.40;11.70;;;19.10;99.90;;;;;;5080345;28;20462;-67
2022/05/18 00:48:12;;;;;;;12.50;11.70;;;19.00;99.90;;;;;;5078814;28;20957;-67
2022/05/18 00:50:42;;;;;;;11.80;10.90;;;19.00;99.90;;;;;;5086871;28;21037;-67
2022/05/18 00:53:16;;;;;;;13.33;12.20;;;18.90;99.90;;;;;;5077720;28;20493;-67
2022/05/18 00:55:49;;;;;;;12.90;12.20;;;18.90;99.90;;;;;;5075503;28;20743;-67
2022/05/18 00:58:19;;;;;;;13.60;12.30;;;18.90;99.90;;;;;;5076852;28;20463;-67
2022/05/18 01:00:47;;;;;;;13.30;11.97;;;18.80;99.90;;;;;;5081783;28;20468;-67
2022/05/18 01:03:19;;;;;;;14.10;12.57;;;18.80;99.90;;;;;;5084659;28;20946;-67
2022/05/18 01:05:50;;;;;;;13.43;12.43;;;18.80;99.90;;;;;;5082358;28;20486;-67
2022/05/18 01:08:27;;;;;;;12.97;11.73;;;18.70;99.90;;;;;;5079622;28;20481;-67
2022/05/18 01:10:54;;;;;;;11.90;11.20;;;18.70;99.90;;;;;;5073078;28;20467;-67
2022/05/18 01:13:21;;;;;;;13.77;12.73;;;18.70;99.90;;;;;;5077129;28;20857;-67
2022/05/18 01:15:49;;;;;;;12.60;11.60;;;18.70;99.90;;;;;;5081036;28;20466;-67
2022/05/18 01:18:16;;;;;;;13.03;12.00;;;18.60;99.90;;;;;;5076037;28;20458;-67
2022/05/18 01:20:45;;;;;;;12.80;11.87;;;18.60;99.90;;;;;;5083025;28;20969;-67
2022/05/18 01:23:38;;;;;;;12.33;11.63;;;18.50;99.90;;;;;;5069268;28;20829;-66
2022/05/18 01:26:16;;;;;;;13.60;12.30;;;18.50;99.90;;;;;;5077259;28;20458;-67
2022/05/18 01:28:50;;;;;;;12.10;11.40;;;18.40;99.90;;;;;;5078857;28;20818;-66
2022/05/18 01:31:17;;;;;;;12.50;11.70;;;18.40;99.90;;;;;;5077329;28;20469;-67
2022/05/18 01:33:44;;;;;;;12.73;12.07;;;18.40;99.90;;;;;;5076456;28;20497;-66
2022/05/18 01:36:10;;;;;;;13.17;12.20;;;18.30;99.90;;;;;;5074128;28;20472;-67
2022/05/18 01:38:37;;;;;;;13.53;12.40;;;18.30;99.90;;;;;;5071904;28;20458;-67
2022/05/18 01:41:11;;;;;;;13.10;12.00;;;18.20;99.90;;;;;;5083123;28;20454;-67
2022/05/18 01:43:42;;;;;;;13.17;12.20;;;18.20;99.90;;;;;;5076217;28;20992;-66
2022/05/18 01:46:12;;;;;;;12.97;12.07;;;18.20;99.90;;;;;;5081048;28;20465;-67
2022/05/18 01:48:42;;;;;;;13.20;12.30;;;18.10;99.90;;;;;;5086441;28;20901;-67
2022/05/18 01:51:11;;;;;;;14.00;12.90;;;18.10;99.90;;;;;;5079127;28;20458;-67
2022/05/18 01:53:39;;;;;;;13.27;12.33;;;18.10;99.90;;;;;;5086589;28;20818;-67
2022/05/18 01:56:08;;;;;;;13.43;12.07;;;18.00;99.90;;;;;;5079717;28;20945;-67
2022/05/18 01:58:35;;;;;;;12.73;11.60;;;18.00;99.90;;;;;;5081798;28;20471;-67
2022/05/18 02:01:03;;;;;;;13.67;12.33;;;17.90;99.90;;;;;;5084226;28;20496;-66
2022/05/18 02:03:33;;;;;;;12.90;11.80;;;17.90;99.90;;;;;;5077657;28;20493;-67
2022/05/18 02:06:00;;;;;;;12.93;12.10;;;17.90;99.90;;;;;;5081344;28;20507;-67
2022/05/18 02:08:28;;;;;;;13.13;12.20;;;17.80;99.90;;;;;;5075581;28;20489;-67
2022/05/18 02:10:55;;;;;;;12.57;11.90;;;17.70;99.90;;;;;;5082018;28;20458;-66
2022/05/18 02:13:22;;;;;;;13.30;12.20;;;17.70;99.90;;;;;;5080697;28;20474;-67
2022/05/18 02:15:49;;;;;;;12.40;11.70;;;17.70;99.90;;;;;;5081578;28;20466;-66
2022/05/18 02:18:16;;;;;;;12.33;11.60;;;17.70;99.90;;;;;;5082984;28;20476;-66
2022/05/18 02:20:45;;;;;;;12.27;11.57;;;17.60;99.90;;;;;;5083931;28;20469;-67
2022/05/18 02:23:13;;;;;;;13.00;11.90;;;17.60;99.90;;;;;;5087245;28;20512;-67
2022/05/18 02:25:40;;;;;;;12.70;11.90;;;17.60;99.90;;;;;;5082036;28;20464;-66
2022/05/18 02:28:07;;;;;;;12.40;11.70;;;17.50;99.90;;;;;;5076834;28;20505;-67
2022/05/18 02:30:35;;;;;;;12.77;11.93;;;17.60;99.90;;;;;;5085629;28;20458;-66
2022/05/18 02:33:02;;;;;;;12.10;11.40;;;17.50;99.90;;;;;;5081444;28;20580;-67
2022/05/18 02:35:29;;;;;;;12.90;12.10;;;17.50;99.90;;;;;;5078229;28;20457;-67
2022/05/18 02:37:58;;;;;;;12.60;11.70;;;17.40;99.90;;;;;;5086631;28;20470;-66
2022/05/18 02:40:25;;;;;;;12.70;11.90;;;17.40;99.90;;;;;;5084072;28;20469;-67
2022/05/18 02:42:52;;;;;;;12.90;11.83;;;17.40;99.90;;;;;;5076842;28;20489;-66
2022/05/18 02:45:20;;;;;;;13.20;12.37;;;17.40;99.90;;;;;;5078612;28;20455;-67
2022/05/18 02:47:47;;;;;;;12.73;12.00;;;17.40;99.90;;;;;;5082728;28;20462;-67
2022/05/18 02:50:14;;;;;;;12.97;11.83;;;17.40;99.90;;;;;;5080763;28;21057;-67
2022/05/18 02:52:43;;;;;;;12.60;11.77;;;17.30;99.90;;;;;;5085520;28;20491;-67
2022/05/18 02:57:57;;;;;;;11.67;10.97;;;17.30;99.90;;;;;;5074978;28;20453;-66
2022/05/18 03:00:24;;;;;;;13.20;12.30;;;17.40;99.90;;;;;;5077475;28;20459;-67
2022/05/18 03:02:52;;;;;;;12.50;11.50;;;17.30;99.90;;;;;;5078883;28;21052;-66
2022/05/18 03:05:19;;;;;;;12.40;11.37;;;17.30;99.90;;;;;;5081099;28;21084;-67
2022/05/18 03:07:46;;;;;;;18.40;13.10;;;17.30;99.90;;;;;;5081910;28;20964;-67
2022/05/18 03:10:18;;;;;;;13.87;12.43;;;17.30;99.90;;;;;;5080103;28;20470;-67
2022/05/18 03:12:47;;;;;;;15.57;11.77;;;17.30;99.90;;;;;;5080472;28;20459;-66
2022/05/18 03:15:14;;;;;;;14.30;12.13;;;17.30;99.90;;;;;;5075649;28;20458;-67
2022/05/18 03:17:43;;;;;;;13.30;11.90;;;17.30;99.90;;;;;;5082481;28;20473;-66
2022/05/18 03:23:33;;;;;;;12.80;11.80;;;17.30;99.90;;;;;;5085756;28;20485;-67
2022/05/18 03:25:45;;;;;;;12.87;12.00;;;17.30;99.90;;;;;;5075257;28;20462;-67
2022/05/18 03:28:12;;;;;;;14.53;13.10;;;17.30;99.90;;;;;;5078609;28;20501;-67
2022/05/18 03:30:40;;;;;;;14.43;13.03;;;17.30;99.90;;;;;;5079250;28;20459;-67
2022/05/18 03:33:07;;;;;;;13.83;12.77;;;17.30;99.90;;;;;;5075591;28;20539;-67
2022/05/18 03:35:33;;;;;;;14.77;13.37;;;17.30;99.90;;;;;;5078273;28;20455;-67
2022/05/18 03:38:05;;;;;;;12.60;11.63;;;17.20;99.90;;;;;;5082655;28;20682;-66
2022/05/18 03:40:35;;;;;;;14.33;13.20;;;17.20;99.90;;;;;;5077192;28;20456;-66
2022/05/18 03:43:04;;;;;;;16.27;13.77;;;17.10;99.90;;;;;;5073554;28;20995;-67
2022/05/18 03:45:33;;;;;;;15.40;13.90;;;17.10;99.90;;;;;;5076383;28;20794;-66
2022/05/18 03:48:00;;;;;;;20.53;14.17;;;17.10;99.90;;;;;;5082496;28;20459;-66
2022/05/18 03:50:28;;;;;;;26.27;14.80;;;17.00;99.90;;;;;;5084755;28;20465;-66
2022/05/18 03:52:55;;;;;;;15.63;13.83;;;17.00;99.90;;;;;;5076612;28;20456;-67
2022/05/18 03:55:22;;;;;;;15.20;13.33;;;17.00;99.90;;;;;;5078178;28;20461;-67
2022/05/18 03:57:48;;;;;;;14.27;12.93;;;17.10;99.90;;;;;;5077505;28;20463;-67
2022/05/18 04:00:18;;;;;;;28.37;14.40;;;17.10;99.90;;;;;;5084687;28;21191;-67
2022/05/18 04:02:47;;;;;;;17.93;13.90;;;17.10;99.90;;;;;;5055900;28;20462;-66
2022/05/18 04:05:16;;;;;;;14.23;13.30;;;17.10;99.90;;;;;;5046728;28;20869;-66
2022/05/18 04:07:42;;;;;;;27.37;13.80;;;17.10;99.90;;;;;;5042989;28;20459;-67
2022/05/18 04:10:11;;;;;;;16.20;13.23;;;17.20;99.90;;;;;;5044850;28;20703;-67
2022/05/18 04:12:38;;;;;;;15.53;14.40;;;17.10;99.90;;;;;;5045770;28;20882;-67
2022/05/18 04:15:06;;;;;;;17.80;14.10;;;17.10;99.90;;;;;;5048024;28;21174;-67
2022/05/18 04:17:35;;;;;;;15.33;14.10;;;17.20;99.90;;;;;;5047301;28;20980;-67
2022/05/18 04:20:03;;;;;;;15.30;14.10;;;17.20;99.90;;;;;;5047923;28;20847;-66
2022/05/18 04:22:30;;;;;;;18.10;14.17;;;17.20;99.90;;;;;;5047622;28;21073;-67
2022/05/18 04:25:01;;;;;;;19.57;13.73;;;17.20;99.90;;;;;;5048151;28;20463;-67
2022/05/18 04:27:28;;;;;;;15.13;13.80;;;17.20;99.90;;;;;;5047391;28;20466;-66
2022/05/18 04:29:55;;;;;;;15.57;14.07;;;17.20;99.90;;;;;;5047211;28;21087;-67
2022/05/18 04:32:23;;;;;;;14.90;13.80;;;17.30;99.90;;;;;;5048335;28;21209;-67
2022/05/18 04:34:51;;;;;;;17.67;13.70;;;17.30;99.90;;;;;;5047822;28;20521;-66
2022/05/18 04:37:19;;;;;;;15.10;13.80;;;17.40;99.90;;;;;;5047134;28;20486;-67
2022/05/18 04:39:47;;;;;;;23.23;14.27;;;17.40;99.90;;;;;;5047463;28;20573;-68
2022/05/18 04:42:14;;;;;;;15.87;14.30;;;17.50;99.90;;;;;;5048698;28;20470;-66
2022/05/18 04:44:41;;;;;;;15.40;13.90;;;17.50;99.90;;;;;;5047933;28;20759;-67
2022/05/18 04:47:08;;;;;;;15.73;14.17;;;17.50;99.90;;;;;;5048367;28;20741;-67
2022/05/18 04:49:35;;;;;;;15.53;14.13;;;17.60;99.90;;;;;;5047244;28;20493;-66
2022/05/18 04:52:05;;;;;;;21.77;15.43;;;17.60;99.90;;;;;;5048262;28;20470;-67
2022/05/18 04:54:32;;;;;;;19.17;14.47;;;17.70;99.90;;;;;;5047312;28;20494;-67
2022/05/18 04:56:59;;;;;;;15.87;14.30;;;17.80;99.90;;;;;;5047195;28;20592;-70
2022/05/18 04:59:27;;;;;;;16.27;14.60;;;17.90;99.90;;;;;;5072823;28;20834;-69
2022/05/18 05:01:54;;;;;;;15.73;14.40;;;18.00;99.90;;;;;;5069098;28;20940;-69
2022/05/18 05:04:21;;;;;;;17.83;14.60;;;18.00;99.90;;;;;;5047943;28;20479;-69
2022/05/18 05:06:48;;;;;;;15.83;14.77;;;18.10;99.90;;;;;;5047212;28;20481;-69
2022/05/18 05:09:17;;;;;;;16.50;14.90;;;18.20;99.90;;;;;;5047998;28;21009;-69
2022/05/18 05:11:43;;;;;;;16.50;15.23;;;18.30;99.90;;;;;;5047534;28;21062;-68
2022/05/18 05:14:11;;;;;;;21.67;15.33;;;18.40;99.90;;;;;;5046896;28;20531;-67
2022/05/18 05:16:38;;;;;;;19.87;14.53;;;18.40;99.90;;;;;;5047009;28;20559;-67
2022/05/18 05:19:05;;;;;;;17.07;15.40;;;18.50;99.90;;;;;;5047182;28;20833;-69
2022/05/18 05:21:32;;;;;;;16.93;15.50;;;18.60;99.90;;;;;;5047919;28;20478;-67
2022/05/18 05:23:58;;;;;;;18.53;15.30;;;18.80;99.90;;;;;;5048317;28;21358;-68
2022/05/18 05:26:27;;;;;;;15.80;14.60;;;18.90;99.90;;;;;;5047782;28;20866;-68
2022/05/18 05:28:54;;;;;;;17.17;15.73;;;19.00;99.90;;;;;;5047272;28;20458;-68
2022/05/18 05:31:22;;;;;;;18.17;16.33;;;19.10;99.90;;;;;;5047830;28;20467;-67
2022/05/18 05:33:49;;;;;;;16.80;15.53;;;19.20;99.90;;;;;;5046994;28;20854;-67
2022/05/18 05:36:15;;;;;;;16.37;15.30;;;19.30;99.90;;;;;;5046245;28;20465;-68
2022/05/18 05:38:42;;;;;;;16.07;14.87;;;19.30;99.90;;;;;;5046861;28;20841;-68
2022/05/18 05:41:09;;;;;;;16.33;15.03;;;19.40;99.90;;;;;;5047609;28;20571;-69
2022/05/18 05:43:39;;;;;;;18.80;16.97;;;19.60;99.90;;;;;;5046671;28;20458;-68
2022/05/18 05:46:09;;;;;;;17.70;16.20;;;19.70;99.90;;;;;;5045463;28;21094;-68
2022/05/18 05:48:37;;;;;;;21.10;16.40;;;19.80;99.90;;;;;;5045876;28;20479;-68
2022/05/18 05:51:05;;;;;;;27.20;16.30;;;19.90;99.90;;;;;;5047025;28;20965;-69
2022/05/18 05:53:32;;;;;;;16.67;14.90;;;20.10;99.90;;;;;;5045678;28;20980;-68
2022/05/18 05:55:59;;;;;;;19.00;15.93;;;20.20;99.90;;;;;;5044242;28;20513;-67
2022/05/18 05:58:27;;;;;;;17.07;15.40;;;20.30;99.90;;;;;;5045186;28;20996;-68
2022/05/18 06:00:58;;;;;;;18.37;16.73;;;20.30;99.90;;;;;;5044928;28;20529;-67
2022/05/18 06:03:26;;;;;;;18.10;16.37;;;20.50;99.90;;;;;;5045379;28;20478;-67
2022/05/18 06:05:55;;;;;;;17.97;16.67;;;20.70;99.90;;;;;;5043671;28;21013;-67
2022/05/18 06:08:22;;;;;;;17.20;15.63;;;20.70;99.90;;;;;;5045249;28;20459;-68
2022/05/18 06:10:48;;;;;;;17.87;16.07;;;20.90;99.90;;;;;;5042470;28;21083;-67
2022/05/18 06:13:15;;;;;;;19.03;15.63;;;21.00;99.90;;;;;;5044288;28;20459;-67
2022/05/18 06:15:43;;;;;;;17.73;15.80;;;21.10;99.90;;;;;;5057224;28;20493;-67
2022/05/18 06:18:11;;;;;;;21.00;17.13;;;21.20;99.90;;;;;;5066882;28;20463;-67
2022/05/18 06:20:38;;;;;;;19.23;16.30;;;21.30;99.90;;;;;;5041155;28;20462;-68
2022/05/18 06:23:09;;;;;;;26.80;16.70;;;21.40;99.90;;;;;;5041264;28;20864;-67
2022/05/18 06:25:36;;;;;;;19.63;16.80;;;21.40;99.90;;;;;;5042862;28;20472;-67
2022/05/18 06:28:04;;;;;;;19.57;17.47;;;21.50;99.90;;;;;;5046943;28;20463;-67
2022/05/18 06:30:31;;;;;;;22.60;17.57;;;21.50;99.90;;;;;;5046089;28;20477;-67
2022/05/18 06:32:58;;;;;;;17.97;16.67;;;21.50;99.90;;;;;;5046097;28;20462;-67
2022/05/18 06:35:27;;;;;;;20.87;16.20;;;21.60;99.90;;;;;;5045029;28;20493;-67
2022/05/18 06:37:54;;;;;;;18.63;16.70;;;21.70;99.90;;;;;;5046034;28;20482;-68
2022/05/18 06:41:21;;;;;;;17.83;16.43;;;21.90;99.90;;;;;;5042727;28;20466;-67
2022/05/18 06:43:08;;;;;;;20.70;16.50;;;22.00;99.90;;;;;;5042504;28;20941;-67
2022/05/18 06:45:34;;;;;;;18.80;15.87;;;22.20;99.90;;;;;;5070772;28;20466;-67
2022/05/18 06:48:01;;;;;;;22.13;16.60;;;22.50;99.90;;;;;;5052071;28;20466;-69
2022/05/18 06:50:30;;;;;;;18.90;17.00;;;22.70;99.90;;;;;;5042890;28;20471;-68
2022/05/18 06:52:57;;;;;;;19.20;17.47;;;22.80;99.90;;;;;;5042772;28;20458;-68
2022/05/18 06:55:23;;;;;;;17.67;16.50;;;22.80;99.90;;;;;;5039994;28;21640;-68
2022/05/18 06:57:51;;;;;;;18.53;16.70;;;23.00;99.90;;;;;;5042496;28;21051;-68
2022/05/18 07:00:19;;;;;;;18.97;17.20;;;23.20;99.90;;;;;;5040980;28;20462;-68
2022/05/18 07:02:47;;;;;;;18.90;17.30;;;23.40;99.90;;;;;;5041733;28;20465;-67
2022/05/18 07:05:14;;;;;;;18.37;16.87;;;23.40;99.90;;;;;;5041663;28;21060;-68
2022/05/18 07:07:42;;;;;;;20.73;16.97;;;23.50;99.90;;;;;;5042552;28;21148;-69
2022/05/18 07:10:10;;;;;;;17.63;16.40;;;23.50;99.90;;;;;;5040960;28;21088;-67
2022/05/18 07:12:37;;;;;;;19.10;17.20;;;23.60;99.90;;;;;;5042214;28;20474;-67
2022/05/18 07:15:05;;;;;;;18.40;16.70;;;23.90;99.90;;;;;;5041027;28;20586;-68
2022/05/18 07:17:33;;;;;;;18.43;17.00;;;23.90;99.90;;;;;;5041801;28;20981;-68
2022/05/18 07:20:00;;;;;;;18.37;16.73;;;24.00;99.90;;;;;;5043737;28;20463;-68
2022/05/18 07:22:27;;;;;;;20.53;16.90;;;24.30;99.90;;;;;;5043211;28;20467;-68
2022/05/18 07:24:56;;;;;;;21.57;16.57;;;24.40;99.90;;;;;;5041971;28;20459;-68
2022/05/18 07:27:23;;;;;;;17.73;16.40;;;24.80;99.90;;;;;;5042259;28;20465;-68
2022/05/18 07:29:49;;;;;;;17.40;16.30;;;24.90;99.90;;;;;;5041404;28;20494;-68
2022/05/18 07:32:17;;;;;;;18.70;17.17;;;24.70;99.90;;;;;;5041618;28;20459;-67
2022/05/18 07:34:45;;;;;;;18.77;16.50;;;24.90;99.90;;;;;;5040704;28;21270;-68
2022/05/18 07:37:13;;;;;;;19.23;17.33;;;25.30;99.90;;;;;;5040782;28;20494;-68
2022/05/18 07:39:40;;;;;;;22.70;16.87;;;25.50;99.90;;;;;;5042789;28;20463;-68
2022/05/18 07:42:09;;;;;;;22.77;16.60;;;25.60;99.90;;;;;;5041388;28;20463;-68
2022/05/18 07:44:37;;;;;;;18.43;16.53;;;25.40;99.90;;;;;;5041041;28;20455;-68
2022/05/18 07:47:06;;;;;;;18.90;16.70;;;25.30;99.90;;;;;;5040355;28;21161;-68
2022/05/18 07:49:35;;;;;;;18.80;16.97;;;25.50;99.90;;;;;;5041044;28;20558;-68
2022/05/18 07:52:03;;;;;;;17.87;16.53;;;25.90;99.90;;;;;;5041632;28;21037;-68
2022/05/18 07:54:29;;;;;;;18.80;17.03;;;25.90;99.90;;;;;;5041853;28;20494;-68
2022/05/18 07:56:56;;;;;;;17.80;16.40;;;26.00;99.90;;;;;;5042295;28;20474;-68
2022/05/18 07:59:24;;;;;;;21.73;17.47;;;26.30;99.90;;;;;;5040733;28;20462;-68
2022/05/18 08:01:51;;;;;;;21.17;17.03;;;26.60;99.90;;;;;;5040894;28;20543;-68
2022/05/18 08:04:19;;;;;;;18.03;16.47;;;26.50;99.90;;;;;;5041859;28;20499;-68
2022/05/18 08:06:46;;;;;;;20.37;17.40;;;26.50;99.90;;;;;;5040004;28;20470;-68
2022/05/18 08:09:13;;;;;;;18.10;16.60;;;26.70;99.90;;;;;;5038918;28;20471;-67
2022/05/18 08:17:10;;;;;;;18.33;16.70;;;27.30;99.90;;;;;;5040200;28;20466;-68
2022/05/18 08:19:36;;;;;;;18.50;16.80;;;27.90;98.80;;;;;;5041040;28;20470;-68
2022/05/18 08:22:04;;;;;;;19.43;17.50;;;28.40;98.10;;;;;;5039996;28;20463;-69
2022/05/18 08:24:31;;;;;;;18.97;17.50;;;29.50;97.40;;;;;;5040854;28;20460;-69
2022/05/18 08:26:58;;;;;;;19.17;17.47;;;30.60;95.00;;;;;;5040952;28;20467;-70
2022/05/18 08:29:26;;;;;;;19.43;17.63;;;31.10;93.40;;;;;;5041376;28;21062;-68
2022/05/18 08:31:53;;;;;;;19.40;17.57;;;31.80;90.30;;;;;;5039458;28;20470;-69
2022/05/18 08:34:21;;;;;;;18.23;17.07;;;32.60;85.80;;;;;;5040842;28;20885;-68
2022/05/18 08:36:49;;;;;;;19.13;17.17;;;33.10;84.10;;;;;;5040879;28;21216;-68
2022/05/18 08:39:15;;;;;;;18.03;17.00;;;33.00;76.60;;;;;;5041381;28;20506;-69
2022/05/18 08:41:45;;;;;;;22.73;18.00;;;33.00;74.30;;;;;;5039680;28;20467;-69
2022/05/18 08:44:24;;;;;;;21.63;17.67;;;32.60;73.60;;;;;;5052012;28;20446;-69
2022/05/18 08:47:05;;;;;;;19.37;17.47;;;33.80;71.80;;;;;;5041150;28;20462;-68
2022/05/18 08:49:39;;;;;;;20.13;18.07;;;34.50;67.70;;;;;;5040769;28;21080;-69
2022/05/18 08:52:28;;;;;;;19.07;17.53;;;34.70;65.50;;;;;;5041579;28;20462;-69
2022/05/18 08:55:04;;;;;;;18.87;17.20;;;35.20;65.80;;;;;;5038215;28;20467;-69
2022/05/18 08:57:36;;;;;;;18.30;16.67;;;35.20;60.80;;;;;;5041278;28;20478;-69
2022/05/18 09:00:14;;;;;;;17.77;16.50;;;35.00;59.40;;;;;;5041191;28;20478;-69
2022/05/18 09:02:43;;;;;;;18.47;16.97;;;34.80;58.90;;;;;;5040754;28;20483;-69
2022/05/18 09:05:15;;;;;;;18.70;17.20;;;35.00;59.50;;;;;;5040210;28;20501;-68
2022/05/18 09:10:44;;;;;;;18.60;16.90;;;35.00;58.10;;;;;;5032377;28;20508;-68
2022/05/18 09:13:13;;;;;;;18.50;17.17;;;34.80;58.10;;;;;;5041133;28;20482;-69
2022/05/18 09:15:51;;;;;;;19.10;17.47;;;34.30;57.90;;;;;;5039924;28;20458;-69
2022/05/18 09:18:27;;;;;;;18.93;16.43;;;34.50;58.50;;;;;;5039619;28;20994;-69
2022/05/18 09:21:02;;;;;;;18.17;16.87;;;34.30;59.50;;;;;;5041427;28;21071;-69
2022/05/18 09:23:49;;;;;;;19.30;17.40;;;34.20;59.40;;;;;;5040139;28;20996;-69
2022/05/18 09:26:35;;;;;;;19.13;17.83;;;33.70;61.20;;;;;;5040904;28;20517;-69
2022/05/18 09:29:13;;;;;;;17.77;16.50;;;33.00;59.80;;;;;;5039693;28;21210;-69
2022/05/18 09:31:51;;;;;;;18.33;16.80;;;32.90;61.40;;;;;;5040489;28;20992;-68
2022/05/18 09:34:37;;;;;;;18.60;17.40;;;33.50;62.60;;;;;;5039806;28;20458;-69
2022/05/18 09:37:27;;;;;;;19.30;17.57;;;32.40;64.20;;;;;;5040881;28;20478;-69
2022/05/18 09:39:58;;;;;;;18.20;17.23;;;32.90;63.90;;;;;;5041124;28;20472;-70
2022/05/18 09:42:30;;;;;;;18.30;17.00;;;32.90;61.20;;;;;;5040438;28;21286;-69
2022/05/18 09:45:03;;;;;;;18.00;17.00;;;33.30;58.70;;;;;;5040219;28;20479;-68
2022/05/18 09:47:37;;;;;;;18.13;17.03;;;32.00;60.30;;;;;;5038461;28;21122;-68
2022/05/18 09:50:09;;;;;;;17.60;16.50;;;31.50;61.90;;;;;;5040406;28;20536;-69
2022/05/18 09:52:38;;;;;;;18.70;17.27;;;32.50;62.30;;;;;;5048726;28;20469;-68
2022/05/18 09:55:08;;;;;;;17.30;16.20;;;33.50;60.10;;;;;;5084379;28;20969;-68
2022/05/18 09:57:40;;;;;;;18.13;16.70;;;33.70;60.30;;;;;;5061047;28;20476;-68
2022/05/18 10:00:10;;;;;;;17.77;16.87;;;33.80;61.80;;;;;;5070342;28;20549;-69
2022/05/18 10:11:17;;;;;;;17.93;16.63;;;33.80;59.60;;;;;;5044341;28;20556;-69
2022/05/18 10:13:54;;;;;;;17.23;16.00;;;33.50;59.50;;;;;;5043495;28;21156;-68
2022/05/18 10:16:34;;;;;;;16.93;15.80;;;33.10;59.40;;;;;;5041667;28;20466;-68
2022/05/18 10:19:03;;;;;;;17.00;16.00;;;34.10;59.80;;;;;;5045024;28;20454;-69
2022/05/18 10:21:36;;;;;;;16.30;15.50;;;34.90;56.90;;;;;;5044671;28;20478;-69
2022/05/18 10:24:07;;;;;;;19.00;17.07;;;34.90;57.00;;;;;;5044719;28;20470;-69
2022/05/18 10:26:36;;;;;;;17.60;16.60;;;33.70;56.50;;;;;;5044802;28;20489;-68
2022/05/18 10:29:07;;;;;;;17.40;16.27;;;34.30;56.30;;;;;;5044467;28;20470;-69
2022/05/18 10:31:37;;;;;;;16.90;15.70;;;34.50;56.90;;;;;;5044749;28;20619;-69
2022/05/18 10:34:23;;;;;;;17.13;16.13;;;34.50;58.60;;;;;;5043630;28;21058;-69
2022/05/18 10:36:55;;;;;;;18.07;16.93;;;33.90;59.70;;;;;;5044127;28;20478;-69
2022/05/18 10:39:32;;;;;;;18.20;16.60;;;34.70;59.10;;;;;;5042511;28;20553;-68
2022/05/18 10:41:59;;;;;;;17.47;16.13;;;34.20;58.00;;;;;;5041743;28;20458;-69
2022/05/18 10:44:33;;;;;;;16.93;16.00;;;34.10;59.00;;;;;;5042302;28;20755;-70
2022/05/18 10:47:15;;;;;;;17.73;16.63;;;34.10;57.00;;;;;;5043863;28;20493;-69
2022/05/18 10:49:44;;;;;;;17.80;16.50;;;33.60;57.90;;;;;;5042641;28;20469;-69
2022/05/18 10:52:15;;;;;;;17.20;16.10;;;33.60;58.70;;;;;;5042872;28;20466;-69
2022/05/18 10:54:55;;;;;;;17.53;16.50;;;34.80;55.80;;;;;;5035858;28;20477;-68
2022/05/18 10:57:30;;;;;;;17.13;16.20;;;36.10;54.40;;;;;;5042996;28;20474;-69
2022/05/18 11:00:05;;;;;;;17.47;16.37;;;36.20;53.70;;;;;;5044413;28;21075;-69
2022/05/18 11:02:40;;;;;;;16.77;15.73;;;36.70;52.70;;;;;;5043306;28;20485;-69
2022/05/18 11:05:19;;;;;;;17.47;15.80;;;37.10;53.50;;;;;;5052363;28;20493;-69
2022/05/18 11:07:49;;;;;;;17.80;16.43;;;36.30;54.20;;;;;;5053377;28;20743;-69
2022/05/18 11:10:17;;;;;;;16.63;15.63;;;35.30;54.20;;;;;;5053296;28;20450;-70
2022/05/18 11:12:51;;;;;;;16.57;15.67;;;35.50;53.20;;;;;;5051560;28;20455;-69
2022/05/18 11:15:26;;;;;;;17.23;16.27;;;36.10;51.80;;;;;;5052519;28;20505;-70
2022/05/18 11:18:06;;;;;;;16.60;15.53;;;37.20;50.60;;;;;;5052313;28;20679;-69
2022/05/18 11:24:06;;;;;;;17.07;15.57;;;39.30;48.50;;;;;;5053291;28;20429;-69
2022/05/18 11:26:42;;;;;;;17.53;15.97;;;38.20;46.00;;;;;;5052875;28;20474;-70
2022/05/18 11:29:27;;;;;;;16.70;15.70;;;37.50;47.20;;;;;;5050341;28;20938;-69
2022/05/18 11:32:10;;;;;;;16.63;15.37;;;37.80;47.50;;;;;;5052302;28;20817;-70
2022/05/18 11:34:45;;;;;;;16.60;15.63;;;37.70;45.30;;;;;;5051733;28;21236;-69
2022/05/18 11:37:39;;;;;;;17.40;16.40;;;37.50;44.20;;;;;;5051998;28;20556;-70
2022/05/18 11:40:17;;;;;;;17.60;16.43;;;38.50;46.10;;;;;;5051583;28;20462;-69
2022/05/18 11:42:57;;;;;;;17.40;16.20;;;38.20;45.20;;;;;;5050963;28;21113;-70
2022/05/18 11:45:34;;;;;;;16.80;15.53;;;38.60;43.40;;;;;;5052183;28;20473;-69
2022/05/18 11:48:13;;;;;;;16.63;15.53;;;38.90;43.10;;;;;;5052099;28;20546;-70
2022/05/18 11:50:52;;;;;;;17.20;15.60;;;39.70;43.00;;;;;;5048545;28;20797;-70
2022/05/18 11:53:32;;;;;;;17.57;16.33;;;39.80;42.80;;;;;;5049666;28;20454;-69
2022/05/18 11:56:18;;;;;;;17.23;16.10;;;39.50;42.80;;;;;;5050172;28;20745;-68
2022/05/18 11:59:09;;;;;;;16.63;15.83;;;38.50;43.20;;;;;;5051690;28;20549;-70
2022/05/18 12:01:48;;;;;;;18.60;15.97;;;37.50;44.20;;;;;;5052219;28;20501;-69
2022/05/18 12:04:35;;;;;;;17.07;16.17;;;37.90;43.80;;;;;;5045290;28;20487;-70
2022/05/18 12:07:29;;;;;;;18.30;16.40;;;37.40;44.20;;;;;;5041675;28;20490;-70
2022/05/18 12:10:19;;;;;;;19.23;16.17;;;37.10;43.60;;;;;;5041726;28;20836;-70
2022/05/18 12:12:57;;;;;;;16.90;15.90;;;37.30;43.40;;;;;;5041983;28;20463;-69
2022/05/18 12:15:32;;;;;;;17.27;16.07;;;37.40;43.40;;;;;;5041622;28;20470;-70
2022/05/18 12:18:04;;;;;;;16.83;15.70;;;38.40;43.70;;;;;;5041747;28;20462;-70
2022/05/18 12:20:36;;;;;;;17.07;15.40;;;39.40;43.60;;;;;;5042550;28;20903;-70
2022/05/18 12:23:07;;;;;;;17.43;16.00;;;39.50;43.20;;;;;;5041352;28;20927;-70
2022/05/18 12:25:36;;;;;;;17.07;15.97;;;39.60;41.40;;;;;;5041616;28;20483;-69
2022/05/18 12:28:06;;;;;;;17.03;15.47;;;40.20;41.80;;;;;;5042358;28;20459;-69
2022/05/18 12:30:36;;;;;;;16.50;15.50;;;40.30;41.80;;;;;;5040489;28;20467;-69
2022/05/18 12:33:05;;;;;;;15.83;14.90;;;39.20;40.20;;;;;;5041545;28;20584;-69
2022/05/18 12:35:36;;;;;;;18.53;16.77;;;38.20;41.00;;;;;;5069814;28;20471;-70
2022/05/18 12:38:07;;;;;;;16.30;15.40;;;38.20;41.70;;;;;;5078917;28;20462;-70
2022/05/18 12:40:46;;;;;;;16.20;15.33;;;38.70;42.10;;;;;;5076135;28;20646;-70
2022/05/18 12:43:18;;;;;;;16.77;15.37;;;39.60;41.60;;;;;;5046525;28;20817;-72
2022/05/18 12:45:48;;;;;;;15.33;14.40;;;40.70;40.00;;;;;;5074993;28;20563;-71
2022/05/18 12:48:34;;;;;;;17.00;15.70;;;41.80;40.30;;;;;;5060580;28;20470;-70
2022/05/18 12:51:08;;;;;;;16.83;15.20;;;40.10;39.00;;;;;;5041110;28;20459;-71
2022/05/18 12:53:53;;;;;;;15.33;14.30;;;40.50;39.60;;;;;;5042073;28;20920;-70
2022/05/18 12:56:23;;;;;;;17.47;14.03;;;41.60;38.10;;;;;;5040535;28;20462;-71
2022/05/18 12:58:55;;;;;;;15.67;14.43;;;42.70;37.80;;;;;;5040469;28;21012;-70
2022/05/18 13:01:24;;;;;;;16.80;15.43;;;42.60;37.00;;;;;;5041298;28;20469;-72
2022/05/18 13:03:58;;;;;;;18.93;14.37;;;42.30;37.40;;;;;;5040807;28;20485;-71
2022/05/18 13:06:50;;;;;;;15.50;14.40;;;42.60;36.50;;;;;;5039563;28;20510;-71
2022/05/18 13:09:39;;;;;;;15.17;14.27;;;41.50;37.70;;;;;;5020841;28;20879;-71
2022/05/18 13:12:30;;;;;;;15.13;14.20;;;41.20;37.60;;;;;;5041247;28;20810;-71